createdAt,value
2023-01-25T00:00:01.670Z,2.60
2023-01-25T00:02:31.674Z,2.50
2023-01-25T00:04:58.431Z,2.50
2023-01-25T00:07:25.145Z,2.30
2023-01-25T00:09:51.798Z,2.20
2023-01-25T00:12:18.542Z,2.30
2023-01-25T00:14:45.813Z,2.20
2023-01-25T00:17:12.551Z,2.20
2023-01-25T00:19:39.264Z,2.00
2023-01-25T00:22:05.921Z,1.90
2023-01-25T00:24:32.569Z,1.90
2023-01-25T00:26:59.704Z,2.00
2023-01-25T00:29:26.409Z,2.00
2023-01-25T00:32:02.019Z,1.90
2023-01-25T00:34:39.246Z,1.90
2023-01-25T00:37:18.047Z,1.80
2023-01-25T00:39:44.710Z,1.80
2023-01-25T00:42:12.823Z,1.80
2023-01-25T00:44:40.052Z,1.70
2023-01-25T00:47:10.689Z,1.90
2023-01-25T00:49:38.426Z,1.90
2023-01-25T00:52:05.789Z,1.90
2023-01-25T00:54:32.552Z,1.80
2023-01-25T00:56:59.394Z,1.70
2023-01-25T00:59:26.348Z,1.80
2023-01-25T01:01:54.534Z,2.00
2023-01-25T01:04:24.980Z,2.10
2023-01-25T01:06:53.673Z,1.90
2023-01-25T01:09:22.014Z,1.80
2023-01-25T01:11:49.223Z,1.70
2023-01-25T01:14:18.522Z,1.70
2023-01-25T01:16:45.441Z,1.70
2023-01-25T01:19:12.931Z,1.80
2023-01-25T01:21:39.659Z,1.70
2023-01-25T01:24:06.890Z,1.50
2023-01-25T01:26:33.639Z,1.40
2023-01-25T01:29:00.322Z,1.40
2023-01-25T01:31:27.336Z,1.40
2023-01-25T01:34:02.888Z,1.50
2023-01-25T01:36:30.400Z,1.60
2023-01-25T01:38:59.787Z,1.60
2023-01-25T01:41:26.852Z,1.40
2023-01-25T01:43:53.640Z,1.20
2023-01-25T01:46:28.823Z,1.30
2023-01-25T01:49:27.665Z,1.30
2023-01-25T01:52:03.011Z,1.40
2023-01-25T01:54:37.477Z,1.50
2023-01-25T01:57:11.749Z,1.60
2023-01-25T01:59:50.153Z,1.80
2023-01-25T02:02:17.220Z,1.90
2023-01-25T02:04:46.949Z,2.00
2023-01-25T02:07:22.515Z,1.90
2023-01-25T02:09:51.143Z,1.70
2023-01-25T02:12:21.477Z,1.70
2023-01-25T02:14:53.049Z,1.90
2023-01-25T02:17:31.033Z,2.00
2023-01-25T02:20:37.474Z,2.20
2023-01-25T02:23:32.125Z,1.90
2023-01-25T02:26:03.026Z,1.60
2023-01-25T02:28:35.960Z,1.70
2023-01-25T02:31:02.681Z,1.90
2023-01-25T02:33:30.203Z,2.10
2023-01-25T02:36:09.176Z,2.30
2023-01-25T02:38:44.350Z,2.30
2023-01-25T02:41:37.934Z,2.30
2023-01-25T02:44:08.602Z,2.30
2023-01-25T02:46:37.506Z,2.40
2023-01-25T02:49:06.129Z,2.30
2023-01-25T02:51:35.953Z,2.30
2023-01-25T02:54:05.224Z,2.40
2023-01-25T02:56:32.726Z,2.30
2023-01-25T02:59:05.298Z,2.20
2023-01-25T03:01:34.748Z,2.00
2023-01-25T03:04:02.344Z,1.90
2023-01-25T03:06:29.303Z,1.90
2023-01-25T03:08:56.165Z,1.80
2023-01-25T03:11:23.333Z,1.90
2023-01-25T03:13:51.633Z,1.80
2023-01-25T03:16:20.081Z,1.80
2023-01-25T03:18:46.864Z,1.80
2023-01-25T03:21:18.654Z,2.00
2023-01-25T03:23:47.215Z,2.10
2023-01-25T03:26:21.011Z,2.20
2023-01-25T03:29:11.091Z,2.30
2023-01-25T03:31:40.743Z,2.40
2023-01-25T03:34:07.529Z,2.40
2023-01-25T03:36:38.251Z,2.30
2023-01-25T03:39:04.991Z,2.20
2023-01-25T03:41:36.060Z,2.40
2023-01-25T03:44:03.059Z,2.40
2023-01-25T03:46:30.154Z,2.40
2023-01-25T03:48:57.483Z,2.40
2023-01-25T03:51:24.287Z,2.30
2023-01-25T03:53:51.056Z,2.10
2023-01-25T03:56:20.290Z,2.20
2023-01-25T03:59:04.512Z,2.20
2023-01-25T04:01:32.802Z,2.10
2023-01-25T04:03:59.855Z,2.20
2023-01-25T04:06:27.481Z,2.20
2023-01-25T04:08:54.252Z,2.30
2023-01-25T04:11:23.707Z,2.40
2023-01-25T04:13:50.953Z,2.30
2023-01-25T04:16:20.435Z,2.40
2023-01-25T04:19:13.233Z,2.40
2023-01-25T04:21:40.332Z,2.50
2023-01-25T04:24:07.735Z,2.60
2023-01-25T04:26:37.782Z,2.60
2023-01-25T04:29:05.479Z,2.60
2023-01-25T04:31:33.077Z,2.70
2023-01-25T04:34:00.639Z,2.90
2023-01-25T04:36:28.012Z,2.90
2023-01-25T04:38:56.023Z,2.80
2023-01-25T04:41:26.811Z,2.60
2023-01-25T04:43:54.539Z,2.50
2023-01-25T04:46:21.420Z,2.50
2023-01-25T04:48:48.165Z,2.50
2023-01-25T04:51:16.093Z,2.40
2023-01-25T04:53:43.730Z,2.30
2023-01-25T04:56:10.898Z,2.30
2023-01-25T04:58:49.170Z,2.40
2023-01-25T05:01:16.025Z,2.40
2023-01-25T05:03:42.783Z,2.40
2023-01-25T05:06:18.753Z,2.30
2023-01-25T05:08:45.507Z,2.40
2023-01-25T05:11:12.966Z,2.40
2023-01-25T05:13:54.904Z,2.50
2023-01-25T05:16:27.811Z,2.50
2023-01-25T05:18:55.662Z,2.30
2023-01-25T05:21:48.282Z,2.20
2023-01-25T05:24:15.131Z,2.10
2023-01-25T05:27:00.417Z,2.00
2023-01-25T05:29:38.004Z,1.90
2023-01-25T05:32:10.882Z,1.80
2023-01-25T05:34:39.111Z,2.00
2023-01-25T05:37:07.811Z,2.20
2023-01-25T05:39:38.268Z,2.20
2023-01-25T05:42:10.632Z,2.40
2023-01-25T05:44:37.335Z,2.40
2023-01-25T05:47:04.137Z,2.30
2023-01-25T05:49:31.669Z,2.30
2023-01-25T05:51:58.430Z,2.50
2023-01-25T05:54:25.261Z,2.70
2023-01-25T05:57:00.095Z,2.50
2023-01-25T05:59:26.929Z,2.70
2023-01-25T06:01:54.504Z,2.70
2023-01-25T06:04:21.970Z,2.70
2023-01-25T06:06:48.868Z,2.80
2023-01-25T06:09:15.786Z,2.90
2023-01-25T06:11:45.774Z,3.00
2023-01-25T06:14:13.431Z,2.90
2023-01-25T06:16:40.688Z,2.80
2023-01-25T06:19:25.969Z,2.80
2023-01-25T06:22:28.062Z,2.80
2023-01-25T06:24:54.672Z,2.80
2023-01-25T06:27:21.288Z,2.90
2023-01-25T06:29:47.910Z,2.90
2023-01-25T06:32:14.694Z,3.10
2023-01-25T06:34:41.514Z,3.00
2023-01-25T06:37:11.309Z,3.00
2023-01-25T06:39:37.966Z,3.00
2023-01-25T06:42:04.744Z,2.80
2023-01-25T06:44:31.930Z,2.80
2023-01-25T06:46:58.688Z,2.60
2023-01-25T06:49:25.748Z,2.40
2023-01-25T06:51:52.417Z,2.40
2023-01-25T06:54:19.293Z,2.30
2023-01-25T06:56:45.960Z,2.60
2023-01-25T06:59:12.752Z,2.70
2023-01-25T07:01:39.503Z,2.70
2023-01-25T07:04:08.115Z,2.70
2023-01-25T07:06:35.005Z,2.60
2023-01-25T07:09:04.130Z,2.50
2023-01-25T07:11:30.781Z,2.50
2023-01-25T07:13:57.414Z,2.60
2023-01-25T07:16:24.097Z,2.60
2023-01-25T07:18:50.745Z,2.60
2023-01-25T07:21:23.192Z,2.60
2023-01-25T07:23:51.110Z,2.70
2023-01-25T07:26:25.642Z,2.80
2023-01-25T07:28:53.694Z,2.80
2023-01-25T07:31:20.834Z,2.70
2023-01-25T07:33:51.716Z,2.50
2023-01-25T07:36:18.903Z,2.70
2023-01-25T07:38:45.823Z,2.70
2023-01-25T07:41:13.056Z,2.70
2023-01-25T07:43:39.890Z,2.70
2023-01-25T07:46:11.584Z,2.70
2023-01-25T07:48:39.138Z,2.60
2023-01-25T07:51:23.294Z,2.50
2023-01-25T07:53:52.699Z,2.30
2023-01-25T07:56:20.272Z,2.20
2023-01-25T07:58:47.431Z,2.30
2023-01-25T08:01:16.899Z,2.20
2023-01-25T08:03:44.246Z,2.20
2023-01-25T08:06:11.409Z,2.10
2023-01-25T08:08:46.788Z,2.00
2023-01-25T08:11:17.054Z,2.10
2023-01-25T08:13:47.151Z,2.10
2023-01-25T08:16:15.546Z,2.20
2023-01-25T08:18:42.220Z,2.00
2023-01-25T08:21:09.332Z,2.10
2023-01-25T08:23:36.393Z,2.20
2023-01-25T08:26:04.340Z,2.40
2023-01-25T08:28:31.529Z,2.60
2023-01-25T08:31:13.038Z,2.70
2023-01-25T08:33:39.833Z,2.80
2023-01-25T08:36:09.009Z,2.90
2023-01-25T08:38:36.880Z,2.90
2023-01-25T08:41:12.800Z,2.90
2023-01-25T08:43:39.482Z,2.90
2023-01-25T08:46:06.619Z,2.90
2023-01-25T08:48:33.698Z,2.90
2023-01-25T08:51:01.029Z,3.00
2023-01-25T08:53:29.499Z,3.00
2023-01-25T08:55:56.196Z,3.00
2023-01-25T08:58:22.930Z,2.70
2023-01-25T09:00:49.689Z,2.70
2023-01-25T09:03:18.210Z,2.70
2023-01-25T09:05:45.118Z,2.80
2023-01-25T09:08:11.842Z,2.80
2023-01-25T09:10:38.551Z,2.80
2023-01-25T09:13:07.695Z,2.80
2023-01-25T09:15:35.355Z,2.90
2023-01-25T09:18:02.005Z,2.90
2023-01-25T09:20:30.543Z,2.90
2023-01-25T09:23:00.015Z,2.90
2023-01-25T09:25:27.057Z,3.00
2023-01-25T09:27:53.704Z,3.00
2023-01-25T09:30:23.183Z,3.10
2023-01-25T09:32:55.733Z,3.10
2023-01-25T09:35:23.587Z,3.00
2023-01-25T09:37:51.990Z,2.90
2023-01-25T09:40:23.301Z,2.70
2023-01-25T09:43:13.095Z,2.70
2023-01-25T09:45:40.377Z,2.90
2023-01-25T09:48:37.743Z,3.00
2023-01-25T09:51:04.368Z,2.80
2023-01-25T09:53:38.382Z,2.90
2023-01-25T09:56:29.437Z,2.80
2023-01-25T09:59:00.770Z,2.70
2023-01-25T10:01:39.337Z,2.70
2023-01-25T10:04:25.369Z,2.80
2023-01-25T10:07:00.611Z,2.50
2023-01-25T10:09:40.251Z,2.50
2023-01-25T10:12:21.855Z,2.60
2023-01-25T10:14:49.456Z,2.70
2023-01-25T10:17:40.017Z,2.80
2023-01-25T10:20:37.660Z,2.80
2023-01-25T10:23:29.834Z,2.80
2023-01-25T10:26:07.601Z,2.80
2023-01-25T10:28:57.508Z,2.70
2023-01-25T10:31:31.998Z,2.70
2023-01-25T10:34:11.047Z,2.70
2023-01-25T10:36:42.288Z,2.70
2023-01-25T10:39:10.364Z,2.70
2023-01-25T10:41:41.502Z,2.70
2023-01-25T10:44:27.762Z,2.70
2023-01-25T10:47:00.603Z,2.80
2023-01-25T10:49:55.519Z,2.70
2023-01-25T10:52:25.330Z,2.60
2023-01-25T10:55:17.927Z,2.60
2023-01-25T10:57:45.809Z,2.60
2023-01-25T11:00:30.190Z,2.80
2023-01-25T11:02:57.682Z,2.70
2023-01-25T11:05:34.734Z,2.90
2023-01-25T11:08:39.024Z,2.90
2023-01-25T11:11:23.781Z,2.90
2023-01-25T11:13:51.243Z,2.70
2023-01-25T11:16:30.048Z,2.70
2023-01-25T11:18:58.458Z,2.80
2023-01-25T11:21:28.087Z,2.80
2023-01-25T11:24:14.709Z,2.90
2023-01-25T11:26:42.432Z,2.70
2023-01-25T11:29:14.003Z,2.50
2023-01-25T11:31:45.519Z,2.60
2023-01-25T11:34:15.741Z,2.50
2023-01-25T11:37:19.338Z,2.60
2023-01-25T11:40:12.829Z,2.70
2023-01-25T11:43:05.912Z,2.80
2023-01-25T11:45:48.801Z,2.80
2023-01-25T11:48:46.397Z,2.60
2023-01-25T11:51:17.106Z,2.50
2023-01-25T11:53:55.047Z,2.50
2023-01-25T11:56:40.468Z,2.60
2023-01-25T11:59:44.110Z,2.60
2023-01-25T12:02:59.029Z,2.60
2023-01-25T12:05:58.638Z,2.70
2023-01-25T12:08:42.900Z,2.70
2023-01-25T12:11:36.827Z,2.90
2023-01-25T12:14:28.226Z,3.00
2023-01-25T12:17:25.565Z,3.00
2023-01-25T12:20:31.736Z,2.90
2023-01-25T12:23:38.473Z,2.80
2023-01-25T12:26:16.610Z,2.60
2023-01-25T12:28:58.131Z,2.70
2023-01-25T12:31:58.348Z,2.80
2023-01-25T12:34:46.315Z,2.80
2023-01-25T12:37:32.869Z,2.90
2023-01-25T12:40:33.854Z,3.00
2023-01-25T12:43:01.989Z,3.10
2023-01-25T12:45:34.389Z,2.90
2023-01-25T12:48:29.776Z,2.80
2023-01-25T12:51:01.417Z,2.60
2023-01-25T12:53:38.273Z,2.50
2023-01-25T12:56:08.260Z,2.60
2023-01-25T12:58:52.409Z,2.70
2023-01-25T13:02:00.692Z,2.60
2023-01-25T13:04:53.193Z,2.70
2023-01-25T13:07:31.468Z,2.50
2023-01-25T13:10:04.538Z,2.60
2023-01-25T13:12:54.469Z,2.50
2023-01-25T13:15:45.021Z,2.50
2023-01-25T13:18:32.703Z,2.30
2023-01-25T13:21:05.409Z,2.20
2023-01-25T13:23:44.012Z,2.40
2023-01-25T13:26:23.936Z,2.40
2023-01-25T13:28:55.525Z,2.70
2023-01-25T13:31:56.507Z,2.70
2023-01-25T13:34:39.631Z,2.60
2023-01-25T13:37:19.985Z,2.70
2023-01-25T13:39:46.608Z,2.70
2023-01-25T13:42:13.208Z,2.80
2023-01-25T13:44:46.821Z,2.80
2023-01-25T13:47:17.715Z,2.70
2023-01-25T13:49:50.549Z,2.60
2023-01-25T13:52:20.892Z,2.50
2023-01-25T13:54:51.693Z,2.50
2023-01-25T13:57:27.444Z,2.60
2023-01-25T14:00:14.632Z,2.60
2023-01-25T14:02:45.733Z,2.60
2023-01-25T14:05:23.033Z,2.70
2023-01-25T14:07:55.625Z,2.60
2023-01-25T14:10:26.231Z,2.60
2023-01-25T14:12:57.830Z,2.70
2023-01-25T14:15:30.814Z,2.70
2023-01-25T14:18:16.225Z,2.80
2023-01-25T14:20:44.506Z,3.00
2023-01-25T14:23:28.659Z,2.90
2023-01-25T14:25:59.096Z,2.90
2023-01-25T14:28:27.073Z,2.70
2023-01-25T14:31:24.967Z,2.60
2023-01-25T14:33:59.899Z,2.60
2023-01-25T14:36:29.418Z,2.60
2023-01-25T14:38:56.834Z,2.70
2023-01-25T14:41:33.665Z,2.60
2023-01-25T14:44:05.857Z,2.70
2023-01-25T14:46:36.653Z,2.70
2023-01-25T14:49:15.474Z,2.70
2023-01-25T14:51:50.359Z,2.80
2023-01-25T14:54:21.343Z,3.00
2023-01-25T14:56:55.557Z,2.90
2023-01-25T14:59:44.851Z,2.90
2023-01-25T15:02:27.183Z,2.90
2023-01-25T15:05:14.668Z,3.00
2023-01-25T15:07:57.099Z,2.80
2023-01-25T15:10:30.496Z,2.80
2023-01-25T15:13:14.639Z,2.60
2023-01-25T15:16:01.572Z,2.70
2023-01-25T15:18:48.963Z,2.60
2023-01-25T15:21:18.229Z,2.80
2023-01-25T15:23:47.596Z,2.80
2023-01-25T15:26:21.475Z,2.70
2023-01-25T15:28:50.792Z,2.80
2023-01-25T15:31:27.545Z,2.90
2023-01-25T15:33:55.476Z,3.00
2023-01-25T15:36:22.591Z,2.80
2023-01-25T15:38:49.603Z,2.90
2023-01-25T15:41:18.626Z,2.90
2023-01-25T15:43:46.385Z,2.90
2023-01-25T15:46:27.668Z,2.90
2023-01-25T15:48:54.695Z,3.00
2023-01-25T15:51:22.071Z,2.80
2023-01-25T15:53:49.276Z,2.80
2023-01-25T15:56:18.709Z,2.90
2023-01-25T15:59:00.757Z,2.80
2023-01-25T16:01:29.963Z,2.80
2023-01-25T16:03:59.055Z,2.90
2023-01-25T16:06:45.385Z,2.90
2023-01-25T16:09:19.849Z,3.00
2023-01-25T16:11:48.399Z,3.00
2023-01-25T16:14:15.143Z,3.00
2023-01-25T16:16:46.343Z,3.00
2023-01-25T16:19:19.831Z,2.90
2023-01-25T16:21:46.732Z,2.80
2023-01-25T16:24:14.097Z,2.90
2023-01-25T16:26:45.806Z,3.00
2023-01-25T16:29:12.962Z,3.10
2023-01-25T16:31:39.682Z,3.00
2023-01-25T16:34:06.654Z,2.90
2023-01-25T16:36:39.220Z,2.80
2023-01-25T16:39:32.527Z,2.80
2023-01-25T16:41:59.434Z,2.70
2023-01-25T16:44:26.279Z,2.70
2023-01-25T16:46:53.535Z,2.70
2023-01-25T16:49:28.047Z,2.70
2023-01-25T16:51:55.540Z,2.80
2023-01-25T16:54:26.463Z,2.80
2023-01-25T16:56:54.445Z,2.80
2023-01-25T16:59:25.319Z,2.70
2023-01-25T17:01:52.391Z,2.70
2023-01-25T17:04:19.498Z,2.70
2023-01-25T17:06:49.977Z,2.70
2023-01-25T17:09:24.557Z,2.60
2023-01-25T17:11:55.773Z,2.60
2023-01-25T17:14:23.257Z,2.60
2023-01-25T17:16:53.464Z,2.70
2023-01-25T17:19:21.161Z,2.70
2023-01-25T17:21:51.930Z,2.70
2023-01-25T17:24:21.483Z,2.70
2023-01-25T17:26:48.684Z,2.70
2023-01-25T17:29:15.473Z,2.60
2023-01-25T17:31:44.013Z,2.60
2023-01-25T17:34:14.845Z,2.60
2023-01-25T17:36:43.749Z,2.60
2023-01-25T17:39:15.665Z,2.70
2023-01-25T17:41:52.385Z,2.50
2023-01-25T17:44:21.986Z,2.50
2023-01-25T17:46:49.527Z,2.50
2023-01-25T17:49:17.058Z,2.30
2023-01-25T17:51:45.087Z,2.20
2023-01-25T17:54:14.296Z,2.30
2023-01-25T17:56:41.137Z,2.40
2023-01-25T17:59:08.829Z,2.10
2023-01-25T18:01:36.193Z,2.20
2023-01-25T18:04:07.372Z,2.30
2023-01-25T18:06:34.326Z,2.30
2023-01-25T18:09:03.550Z,2.00
2023-01-25T18:11:32.972Z,1.80
2023-01-25T18:14:03.458Z,1.90
2023-01-25T18:16:31.814Z,2.00
2023-01-25T18:19:00.481Z,2.10
2023-01-25T18:21:31.549Z,2.10
2023-01-25T18:24:05.395Z,2.30
2023-01-25T18:26:35.654Z,2.20
2023-01-25T18:29:09.918Z,2.10
2023-01-25T18:31:37.374Z,2.10
2023-01-25T18:34:04.403Z,2.00
2023-01-25T18:36:31.254Z,2.00
2023-01-25T18:38:59.869Z,1.90
2023-01-25T18:41:27.202Z,1.90
2023-01-25T18:43:54.244Z,1.90
2023-01-25T18:46:21.249Z,1.90
2023-01-25T18:48:48.516Z,1.80
2023-01-25T18:51:19.818Z,1.90
2023-01-25T18:53:49.581Z,1.90
2023-01-25T18:56:19.060Z,2.20
2023-01-25T18:58:46.170Z,2.50
2023-01-25T19:01:14.722Z,2.40
2023-01-25T19:03:45.871Z,2.30
2023-01-25T19:06:14.132Z,2.30
2023-01-25T19:08:43.133Z,2.30
2023-01-25T19:11:15.427Z,2.30
2023-01-25T19:13:43.032Z,2.30
2023-01-25T19:16:19.808Z,2.10
2023-01-25T19:18:49.875Z,2.10
2023-01-25T19:21:25.068Z,2.10
2023-01-25T19:23:52.797Z,2.20
2023-01-25T19:26:21.651Z,2.00
2023-01-25T19:28:49.027Z,2.10
2023-01-25T19:31:18.514Z,2.30
2023-01-25T19:33:46.131Z,2.20
2023-01-25T19:36:16.555Z,2.10
2023-01-25T19:38:44.010Z,2.10
2023-01-25T19:41:13.408Z,2.30
2023-01-25T19:43:43.667Z,2.20
2023-01-25T19:46:15.930Z,1.90
2023-01-25T19:48:44.038Z,1.90
2023-01-25T19:51:15.678Z,1.80
2023-01-25T19:53:47.392Z,1.80
2023-01-25T19:56:16.657Z,1.60
2023-01-25T19:58:45.307Z,1.60
2023-01-25T20:01:15.110Z,1.60
2023-01-25T20:03:42.162Z,1.60
2023-01-25T20:06:10.069Z,1.70
2023-01-25T20:08:38.796Z,1.80
2023-01-25T20:11:19.594Z,1.90
2023-01-25T20:13:47.612Z,1.90
2023-01-25T20:16:17.114Z,1.70
2023-01-25T20:18:44.944Z,1.60
2023-01-25T20:21:14.224Z,1.70
2023-01-25T20:23:43.407Z,2.00
2023-01-25T20:26:19.659Z,1.90
2023-01-25T20:28:51.444Z,1.80
2023-01-25T20:31:21.206Z,1.70
2023-01-25T20:33:51.672Z,1.80
2023-01-25T20:36:18.790Z,1.90
2023-01-25T20:38:46.211Z,1.90
2023-01-25T20:41:14.590Z,1.70
2023-01-25T20:43:48.245Z,1.80
2023-01-25T20:46:16.224Z,1.70
2023-01-25T20:48:43.536Z,1.80
2023-01-25T20:51:13.038Z,1.70
2023-01-25T20:53:41.504Z,1.60
2023-01-25T20:56:09.885Z,1.70
2023-01-25T20:58:37.112Z,1.70
2023-01-25T21:01:05.125Z,1.70
2023-01-25T21:03:31.918Z,1.80
2023-01-25T21:06:00.460Z,1.80
2023-01-25T21:08:28.147Z,1.60
2023-01-25T21:10:57.519Z,1.60
2023-01-25T21:13:25.431Z,1.60
2023-01-25T21:16:00.277Z,1.60
2023-01-25T21:18:35.834Z,1.50
2023-01-25T21:21:21.502Z,1.30
2023-01-25T21:23:50.382Z,1.10
2023-01-25T21:26:26.331Z,1.00
2023-01-25T21:28:56.360Z,1.10
2023-01-25T21:31:34.676Z,1.30
2023-01-25T21:34:02.720Z,1.40
2023-01-25T21:36:30.265Z,1.60
2023-01-25T21:38:58.460Z,1.70
2023-01-25T21:41:29.287Z,1.70
2023-01-25T21:44:16.822Z,2.00
2023-01-25T21:46:51.382Z,2.10
2023-01-25T21:49:46.159Z,2.10
2023-01-25T21:52:12.961Z,2.10
2023-01-25T21:54:40.272Z,1.90
2023-01-25T21:57:09.839Z,1.90
2023-01-25T21:59:37.979Z,2.10
2023-01-25T22:02:08.255Z,2.10
2023-01-25T22:04:36.017Z,2.00
2023-01-25T22:07:03.881Z,2.10
2023-01-25T22:09:31.096Z,2.10
2023-01-25T22:11:58.874Z,2.00
2023-01-25T22:14:26.097Z,2.00
2023-01-25T22:16:53.246Z,1.90
2023-01-25T22:19:19.967Z,1.70
2023-01-25T22:21:47.047Z,1.90
2023-01-25T22:24:14.303Z,2.00
2023-01-25T22:26:53.818Z,1.80
2023-01-25T22:29:21.028Z,1.60
2023-01-25T22:31:48.264Z,1.50
2023-01-25T22:34:15.077Z,1.50
2023-01-25T22:36:42.050Z,1.50
2023-01-25T22:39:15.359Z,1.40
2023-01-25T22:41:42.485Z,1.20
2023-01-25T22:44:10.079Z,1.40
2023-01-25T22:46:37.288Z,1.50
2023-01-25T22:49:04.878Z,1.60
2023-01-25T22:51:32.646Z,1.60
2023-01-25T22:54:00.289Z,1.60
2023-01-25T22:56:32.141Z,1.60
2023-01-25T22:59:00.126Z,1.60
2023-01-25T23:01:30.036Z,1.30
2023-01-25T23:03:57.180Z,1.20
2023-01-25T23:06:28.393Z,1.30
2023-01-25T23:08:56.860Z,1.40
2023-01-25T23:11:27.746Z,1.60
2023-01-25T23:14:13.085Z,1.80
2023-01-25T23:16:39.690Z,1.90
2023-01-25T23:19:06.356Z,1.60
2023-01-25T23:21:33.692Z,1.70
2023-01-25T23:24:01.193Z,1.80
2023-01-25T23:26:37.790Z,1.60
2023-01-25T23:29:09.172Z,1.60
2023-01-25T23:31:36.592Z,1.60
2023-01-25T23:34:05.339Z,1.70
2023-01-25T23:36:34.706Z,1.70
2023-01-25T23:39:01.789Z,1.60
2023-01-25T23:41:30.742Z,1.90
2023-01-25T23:43:58.252Z,1.70
2023-01-25T23:46:25.810Z,1.70
2023-01-25T23:48:52.683Z,1.60
2023-01-25T23:51:20.188Z,1.60
2023-01-25T23:53:47.655Z,1.70
2023-01-25T23:56:19.578Z,1.80
2023-01-25T23:58:47.453Z,1.80
